CheckWX is a tool to help pilots better visualize weather data.  It is not intended as a substitute for an official pre-flight weather briefing.

12:12:20 UTC

KMOP METAR
Mount Pleasant Municipal Airport
Mount Pleasant, Michigan, USA
Current

17 mins ago

KMOP 041155Z AUTO 00000KT 10SM CLR 21/21 A3006 RMK AO2 T02140214 10214 20185
Observed
Jul-4 @ 11:55 UTC
Visibility
10 SM
Flight Rules
VFR
Cloud Levels
  • Clear skies
Temperature
21°C / 70°F
Dewpoint
21°C / 70°F
Humidity
100%
Altimeter
30.06" Hg
Pressure
1017.92 hPa
Previous

36 mins ago

KMOP 041136Z AUTO 00000KT 10SM CLR 21/21 A3007 RMK AO2 T02110211
Observed
Jul-4 @ 11:36 UTC
Visibility
10 SM
Flight Rules
VFR
Cloud Levels
  • Clear skies
Temperature
21°C / 70°F
Dewpoint
21°C / 70°F
Humidity
100%
Altimeter
30.07" Hg
Pressure
1018.32 hPa
Previous

56 mins ago

KMOP 041116Z AUTO 00000KT 5SM BR CLR 20/20 A3006 RMK AO2 T02010201
Observed
Jul-4 @ 11:16 UTC
Visibility
5 SM
Flight Rules
MVFR
Conditions
Mist
Cloud Levels
  • Clear skies
Temperature
20°C / 68°F
Dewpoint
20°C / 68°F
Humidity
100%
Altimeter
30.06" Hg
Pressure
1017.92 hPa